Terminal Aerodrome Forecast
Issued by NWS Miami, FL

Current Version | Previous Version | Text Only | Print | Product List | Glossary On
Versions: 1 2 3 4 5 6 7 8 9 10 11 12 13 14 15 16 17 18 19 20 21 22 23 24 25 26 27 28 29 30 31 32 33 34
000
FTUS42 KMFL 280857 AAD
TAFFLL
TAF AMD
KFLL 280857Z 2809/0106 12012KT P6SM SCT020 BKN080
      TEMPO 2809/2811 SCT015 BKN025
     FM281500 12016KT P6SM BKN035 BKN050
     FM010000 11012KT P6SM BKN050=

USA.gov is the U.S. government's official web portal to all federal, state and local government web resources and services.